CheckWX is a tool to help pilots better visualize weather data.  It is not intended as a substitute for an official pre-flight weather briefing.

02:50:59 UTC

KDVN METAR
Davenport Municipal Airport
Davenport, Iowa, USA
Current

59 mins ago

KDVN 230152Z AUTO 27005KT 10SM FEW075 19/18 A2989 RMK AO2 SLP116 T01940178
Observed
Sep-23 @ 01:52 UTC
Wind
  • 270° at 5 KTS
Visibility
10 SM
Flight Rules
VFR
Cloud Levels
  • Few at 7,500' AGL
Temperature
19°C / 66°F
Dewpoint
18°C / 64°F
Humidity
94%
Altimeter
29.89" Hg
Pressure
1012.22 hPa
Previous

2 hours ago

KDVN 230052Z AUTO 24005KT 10SM FEW018 BKN038 OVC100 19/18 A2988 RMK AO2 SLP112 T01940183
Observed
Sep-23 @ 00:52 UTC
Wind
  • 240° at 5 KTS
Visibility
10 SM
Flight Rules
VFR
Cloud Levels
  • Few at 1,800' AGL
  • Broken at 3,800' AGL
  • Overcast at 10,000' AGL
Temperature
19°C / 66°F
Dewpoint
18°C / 64°F
Humidity
94%
Altimeter
29.88" Hg
Pressure
1011.82 hPa
Previous

3 hours ago

KDVN 230003Z AUTO 25005KT 10SM SCT027 BKN038 20/18 A2986 RMK AO2 T02000183
Observed
Sep-23 @ 00:03 UTC
Wind
  • 250° at 5 KTS
Visibility
10 SM
Flight Rules
VFR
Cloud Levels
  • Scattered at 2,700' AGL
  • Broken at 3,800' AGL
Temperature
20°C / 68°F
Dewpoint
18°C / 64°F
Humidity
88%
Altimeter
29.86" Hg
Pressure
1011.22 hPa